sensor_id;sensor_type;location;lat;lon;timestamp;P1;durP1;ratioP1;P2;durP2;ratioP2
21886;SDS011;11108;49.988;8.182;2023-02-23T00:01:59;4.33;;;3.93;;
21886;SDS011;11108;49.988;8.182;2023-02-23T00:04:30;4.70;;;4.30;;
21886;SDS011;11108;49.988;8.182;2023-02-23T00:06:55;4.70;;;4.30;;
21886;SDS011;11108;49.988;8.182;2023-02-23T00:09:20;5.03;;;4.43;;
21886;SDS011;11108;49.988;8.182;2023-02-23T00:11:49;4.33;;;3.93;;
21886;SDS011;11108;49.988;8.182;2023-02-23T00:14:15;4.87;;;4.43;;
21886;SDS011;11108;49.988;8.182;2023-02-23T00:16:40;3.87;;;3.57;;
21886;SDS011;11108;49.988;8.182;2023-02-23T00:19:09;5.30;;;4.83;;
21886;SDS011;11108;49.988;8.182;2023-02-23T00:21:35;4.30;;;3.87;;
21886;SDS011;11108;49.988;8.182;2023-02-23T00:24:02;4.87;;;4.47;;
21886;SDS011;11108;49.988;8.182;2023-02-23T00:26:29;4.17;;;3.87;;
21886;SDS011;11108;49.988;8.182;2023-02-23T00:28:55;4.97;;;4.40;;
21886;SDS011;11108;49.988;8.182;2023-02-23T00:31:22;4.67;;;4.27;;
21886;SDS011;11108;49.988;8.182;2023-02-23T00:33:49;5.23;;;4.50;;
21886;SDS011;11108;49.988;8.182;2023-02-23T00:36:17;4.47;;;4.13;;
21886;SDS011;11108;49.988;8.182;2023-02-23T00:38:42;4.57;;;4.17;;
21886;SDS011;11108;49.988;8.182;2023-02-23T00:41:11;5.00;;;4.50;;
21886;SDS011;11108;49.988;8.182;2023-02-23T00:43:37;8.30;;;4.60;;
21886;SDS011;11108;49.988;8.182;2023-02-23T00:46:03;4.20;;;3.90;;
21886;SDS011;11108;49.988;8.182;2023-02-23T00:48:32;4.60;;;4.20;;
21886;SDS011;11108;49.988;8.182;2023-02-23T00:51:01;5.07;;;4.67;;
21886;SDS011;11108;49.988;8.182;2023-02-23T00:53:26;3.93;;;3.67;;
21886;SDS011;11108;49.988;8.182;2023-02-23T00:55:52;4.60;;;4.20;;
21886;SDS011;11108;49.988;8.182;2023-02-23T00:58:18;4.47;;;4.07;;
21886;SDS011;11108;49.988;8.182;2023-02-23T01:00:43;4.90;;;4.50;;
21886;SDS011;11108;49.988;8.182;2023-02-23T01:03:08;4.53;;;4.23;;
21886;SDS011;11108;49.988;8.182;2023-02-23T01:05:34;4.87;;;4.33;;
21886;SDS011;11108;49.988;8.182;2023-02-23T01:07:59;3.93;;;3.73;;
21886;SDS011;11108;49.988;8.182;2023-02-23T01:10:24;4.30;;;4.00;;
21886;SDS011;11108;49.988;8.182;2023-02-23T01:12:50;4.90;;;4.50;;
21886;SDS011;11108;49.988;8.182;2023-02-23T01:15:16;4.70;;;4.40;;
21886;SDS011;11108;49.988;8.182;2023-02-23T01:17:41;4.50;;;4.10;;
21886;SDS011;11108;49.988;8.182;2023-02-23T01:20:07;4.17;;;3.87;;
21886;SDS011;11108;49.988;8.182;2023-02-23T01:22:43;4.37;;;3.97;;
21886;SDS011;11108;49.988;8.182;2023-02-23T01:25:08;4.53;;;4.13;;
21886;SDS011;11108;49.988;8.182;2023-02-23T01:27:34;4.30;;;3.90;;
21886;SDS011;11108;49.988;8.182;2023-02-23T01:29:59;4.90;;;4.47;;
21886;SDS011;11108;49.988;8.182;2023-02-23T01:32:24;4.63;;;4.27;;
21886;SDS011;11108;49.988;8.182;2023-02-23T01:34:49;4.63;;;4.27;;
21886;SDS011;11108;49.988;8.182;2023-02-23T01:37:15;4.53;;;4.13;;
21886;SDS011;11108;49.988;8.182;2023-02-23T01:39:40;4.87;;;4.50;;
21886;SDS011;11108;49.988;8.182;2023-02-23T01:42:08;4.17;;;3.87;;
21886;SDS011;11108;49.988;8.182;2023-02-23T01:47:03;4.17;;;3.83;;
21886;SDS011;11108;49.988;8.182;2023-02-23T01:49:29;4.03;;;3.73;;
21886;SDS011;11108;49.988;8.182;2023-02-23T01:51:59;4.40;;;4.10;;
21886;SDS011;11108;49.988;8.182;2023-02-23T01:54:29;4.10;;;3.80;;
21886;SDS011;11108;49.988;8.182;2023-02-23T01:56:57;4.47;;;4.10;;
21886;SDS011;11108;49.988;8.182;2023-02-23T01:59:24;4.20;;;3.90;;
21886;SDS011;11108;49.988;8.182;2023-02-23T02:01:52;4.57;;;4.20;;
21886;SDS011;11108;49.988;8.182;2023-02-23T02:04:18;4.30;;;3.90;;
21886;SDS011;11108;49.988;8.182;2023-02-23T02:06:44;4.40;;;4.10;;
21886;SDS011;11108;49.988;8.182;2023-02-23T02:09:12;4.23;;;3.93;;
21886;SDS011;11108;49.988;8.182;2023-02-23T02:11:41;4.67;;;4.33;;
21886;SDS011;11108;49.988;8.182;2023-02-23T02:21:55;4.67;;;4.10;;
21886;SDS011;11108;49.988;8.182;2023-02-23T02:24:37;4.87;;;4.47;;
21886;SDS011;11108;49.988;8.182;2023-02-23T02:27:33;3.83;;;3.63;;
21886;SDS011;11108;49.988;8.182;2023-02-23T02:35:12;4.23;;;3.90;;
21886;SDS011;11108;49.988;8.182;2023-02-23T02:50:10;4.20;;;3.90;;
21886;SDS011;11108;49.988;8.182;2023-02-23T02:52:42;4.57;;;4.27;;
21886;SDS011;11108;49.988;8.182;2023-02-23T02:55:20;4.23;;;3.93;;
21886;SDS011;11108;49.988;8.182;2023-02-23T02:57:48;4.33;;;4.03;;
21886;SDS011;11108;49.988;8.182;2023-02-23T03:00:17;4.70;;;4.23;;
21886;SDS011;11108;49.988;8.182;2023-02-23T03:03:02;4.43;;;4.13;;
21886;SDS011;11108;49.988;8.182;2023-02-23T03:05:47;4.17;;;3.87;;
21886;SDS011;11108;49.988;8.182;2023-02-23T03:08:39;4.40;;;4.10;;
21886;SDS011;11108;49.988;8.182;2023-02-23T03:11:27;4.50;;;4.20;;
21886;SDS011;11108;49.988;8.182;2023-02-23T03:22:52;5.03;;;4.57;;
21886;SDS011;11108;49.988;8.182;2023-02-23T03:34:29;4.27;;;3.90;;
21886;SDS011;11108;49.988;8.182;2023-02-23T03:37:17;4.27;;;3.97;;
21886;SDS011;11108;49.988;8.182;2023-02-23T03:40:10;4.53;;;4.13;;
21886;SDS011;11108;49.988;8.182;2023-02-23T03:42:57;4.57;;;4.27;;
21886;SDS011;11108;49.988;8.182;2023-02-23T03:45:42;4.90;;;4.50;;
21886;SDS011;11108;49.988;8.182;2023-02-23T03:48:27;4.37;;;4.00;;
21886;SDS011;11108;49.988;8.182;2023-02-23T03:51:12;4.33;;;4.03;;
21886;SDS011;11108;49.988;8.182;2023-02-23T03:53:59;4.10;;;3.80;;
21886;SDS011;11108;49.988;8.182;2023-02-23T03:56:45;4.07;;;3.77;;
21886;SDS011;11108;49.988;8.182;2023-02-23T03:59:32;4.00;;;3.70;;
21886;SDS011;11108;49.988;8.182;2023-02-23T04:02:16;4.40;;;4.10;;
21886;SDS011;11108;49.988;8.182;2023-02-23T04:05:03;4.47;;;4.17;;
21886;SDS011;11108;49.988;8.182;2023-02-23T04:07:47;5.00;;;4.60;;
21886;SDS011;11108;49.988;8.182;2023-02-23T04:10:33;4.10;;;3.80;;
21886;SDS011;11108;49.988;8.182;2023-02-23T04:13:19;4.40;;;4.10;;
21886;SDS011;11108;49.988;8.182;2023-02-23T04:15:51;4.57;;;4.27;;
21886;SDS011;11108;49.988;8.182;2023-02-23T04:18:22;4.37;;;4.00;;
21886;SDS011;11108;49.988;8.182;2023-02-23T04:20:48;4.27;;;3.93;;
21886;SDS011;11108;49.988;8.182;2023-02-23T04:23:13;4.13;;;3.83;;
21886;SDS011;11108;49.988;8.182;2023-02-23T04:25:38;4.30;;;3.93;;
21886;SDS011;11108;49.988;8.182;2023-02-23T04:28:04;4.27;;;3.97;;
21886;SDS011;11108;49.988;8.182;2023-02-23T04:30:29;4.03;;;3.73;;
21886;SDS011;11108;49.988;8.182;2023-02-23T04:32:54;4.17;;;3.87;;
21886;SDS011;11108;49.988;8.182;2023-02-23T04:35:20;4.60;;;4.00;;
21886;SDS011;11108;49.988;8.182;2023-02-23T04:37:45;4.30;;;4.00;;
21886;SDS011;11108;49.988;8.182;2023-02-23T04:40:11;4.60;;;4.20;;
21886;SDS011;11108;49.988;8.182;2023-02-23T04:42:39;5.00;;;4.60;;
21886;SDS011;11108;49.988;8.182;2023-02-23T04:45:05;4.87;;;4.47;;
21886;SDS011;11108;49.988;8.182;2023-02-23T04:47:30;4.23;;;3.93;;
21886;SDS011;11108;49.988;8.182;2023-02-23T04:49:56;4.27;;;3.97;;
21886;SDS011;11108;49.988;8.182;2023-02-23T04:52:21;4.30;;;4.00;;
21886;SDS011;11108;49.988;8.182;2023-02-23T04:54:46;4.30;;;4.00;;
21886;SDS011;11108;49.988;8.182;2023-02-23T04:57:12;4.13;;;3.83;;
21886;SDS011;11108;49.988;8.182;2023-02-23T04:59:37;4.23;;;3.93;;
21886;SDS011;11108;49.988;8.182;2023-02-23T05:02:02;4.80;;;4.30;;
21886;SDS011;11108;49.988;8.182;2023-02-23T05:04:28;4.50;;;4.10;;
21886;SDS011;11108;49.988;8.182;2023-02-23T05:06:53;4.13;;;3.83;;
21886;SDS011;11108;49.988;8.182;2023-02-23T05:09:18;4.30;;;4.00;;
21886;SDS011;11108;49.988;8.182;2023-02-23T05:11:44;4.37;;;4.07;;
21886;SDS011;11108;49.988;8.182;2023-02-23T05:14:10;4.30;;;4.00;;
21886;SDS011;11108;49.988;8.182;2023-02-23T05:16:36;4.33;;;4.03;;
21886;SDS011;11108;49.988;8.182;2023-02-23T05:19:01;3.67;;;3.47;;
21886;SDS011;11108;49.988;8.182;2023-02-23T05:21:26;4.40;;;4.10;;
21886;SDS011;11108;49.988;8.182;2023-02-23T05:23:52;4.43;;;4.13;;
21886;SDS011;11108;49.988;8.182;2023-02-23T05:26:17;4.27;;;3.97;;
21886;SDS011;11108;49.988;8.182;2023-02-23T05:28:42;3.83;;;3.53;;
21886;SDS011;11108;49.988;8.182;2023-02-23T05:31:08;4.30;;;4.00;;
21886;SDS011;11108;49.988;8.182;2023-02-23T05:33:33;4.27;;;3.97;;
21886;SDS011;11108;49.988;8.182;2023-02-23T05:35:59;4.37;;;4.07;;
21886;SDS011;11108;49.988;8.182;2023-02-23T05:38:24;4.70;;;4.40;;
21886;SDS011;11108;49.988;8.182;2023-02-23T05:40:50;4.40;;;4.10;;
21886;SDS011;11108;49.988;8.182;2023-02-23T05:43:15;3.57;;;3.37;;
21886;SDS011;11108;49.988;8.182;2023-02-23T05:45:41;4.23;;;3.97;;
21886;SDS011;11108;49.988;8.182;2023-02-23T05:48:07;4.00;;;3.70;;
21886;SDS011;11108;49.988;8.182;2023-02-23T05:50:32;4.00;;;3.70;;
21886;SDS011;11108;49.988;8.182;2023-02-23T05:52:57;3.87;;;3.57;;
21886;SDS011;11108;49.988;8.182;2023-02-23T05:55:22;4.20;;;4.00;;
21886;SDS011;11108;49.988;8.182;2023-02-23T05:57:48;4.57;;;4.23;;
21886;SDS011;11108;49.988;8.182;2023-02-23T06:00:14;4.00;;;3.70;;
21886;SDS011;11108;49.988;8.182;2023-02-23T06:02:40;4.23;;;3.93;;
21886;SDS011;11108;49.988;8.182;2023-02-23T06:05:06;4.37;;;3.97;;
21886;SDS011;11108;49.988;8.182;2023-02-23T06:07:31;4.30;;;4.00;;
21886;SDS011;11108;49.988;8.182;2023-02-23T06:09:56;4.30;;;4.00;;
21886;SDS011;11108;49.988;8.182;2023-02-23T06:12:21;4.23;;;3.93;;
21886;SDS011;11108;49.988;8.182;2023-02-23T06:14:47;4.40;;;4.03;;
21886;SDS011;11108;49.988;8.182;2023-02-23T06:17:14;3.90;;;3.67;;
21886;SDS011;11108;49.988;8.182;2023-02-23T06:19:39;4.00;;;3.77;;
21886;SDS011;11108;49.988;8.182;2023-02-23T06:22:05;4.13;;;3.83;;
21886;SDS011;11108;49.988;8.182;2023-02-23T06:24:30;3.97;;;3.67;;
21886;SDS011;11108;49.988;8.182;2023-02-23T06:26:55;4.07;;;3.77;;
21886;SDS011;11108;49.988;8.182;2023-02-23T06:29:20;3.93;;;3.63;;
21886;SDS011;11108;49.988;8.182;2023-02-23T06:31:46;4.20;;;3.90;;
21886;SDS011;11108;49.988;8.182;2023-02-23T06:34:11;4.70;;;4.30;;
21886;SDS011;11108;49.988;8.182;2023-02-23T06:36:36;3.87;;;3.67;;
21886;SDS011;11108;49.988;8.182;2023-02-23T06:39:02;4.23;;;3.93;;
21886;SDS011;11108;49.988;8.182;2023-02-23T06:41:27;3.70;;;3.50;;
21886;SDS011;11108;49.988;8.182;2023-02-23T06:43:53;4.17;;;3.87;;
21886;SDS011;11108;49.988;8.182;2023-02-23T06:46:18;5.00;;;4.57;;
21886;SDS011;11108;49.988;8.182;2023-02-23T06:48:43;4.63;;;4.23;;
21886;SDS011;11108;49.988;8.182;2023-02-23T06:51:08;4.33;;;3.93;;
21886;SDS011;11108;49.988;8.182;2023-02-23T06:53:34;4.67;;;4.27;;
21886;SDS011;11108;49.988;8.182;2023-02-23T06:55:59;4.90;;;4.50;;
21886;SDS011;11108;49.988;8.182;2023-02-23T06:58:25;5.17;;;4.77;;
21886;SDS011;11108;49.988;8.182;2023-02-23T07:00:50;4.53;;;4.20;;
21886;SDS011;11108;49.988;8.182;2023-02-23T07:03:16;4.30;;;4.00;;
21886;SDS011;11108;49.988;8.182;2023-02-23T07:05:43;4.50;;;3.80;;
21886;SDS011;11108;49.988;8.182;2023-02-23T07:08:08;4.30;;;4.00;;
21886;SDS011;11108;49.988;8.182;2023-02-23T07:10:33;4.40;;;4.00;;
21886;SDS011;11108;49.988;8.182;2023-02-23T07:12:59;4.17;;;3.87;;
21886;SDS011;11108;49.988;8.182;2023-02-23T07:15:24;4.10;;;3.80;;
21886;SDS011;11108;49.988;8.182;2023-02-23T07:17:50;4.57;;;4.27;;
21886;SDS011;11108;49.988;8.182;2023-02-23T07:20:16;4.53;;;4.13;;
21886;SDS011;11108;49.988;8.182;2023-02-23T07:22:42;5.13;;;4.33;;
21886;SDS011;11108;49.988;8.182;2023-02-23T07:25:07;4.97;;;4.57;;
21886;SDS011;11108;49.988;8.182;2023-02-23T07:27:33;9.43;;;4.73;;
21886;SDS011;11108;49.988;8.182;2023-02-23T07:29:58;5.80;;;4.30;;
21886;SDS011;11108;49.988;8.182;2023-02-23T07:32:24;5.43;;;4.27;;
21886;SDS011;11108;49.988;8.182;2023-02-23T07:34:49;4.00;;;3.70;;
21886;SDS011;11108;49.988;8.182;2023-02-23T07:37:14;4.53;;;4.10;;
21886;SDS011;11108;49.988;8.182;2023-02-23T07:39:41;4.33;;;4.03;;
21886;SDS011;11108;49.988;8.182;2023-02-23T07:42:06;4.70;;;4.30;;
21886;SDS011;11108;49.988;8.182;2023-02-23T07:44:31;4.73;;;4.33;;
21886;SDS011;11108;49.988;8.182;2023-02-23T07:46:56;5.30;;;3.97;;
21886;SDS011;11108;49.988;8.182;2023-02-23T07:49:21;4.87;;;4.20;;
21886;SDS011;11108;49.988;8.182;2023-02-23T07:51:47;4.27;;;3.90;;
21886;SDS011;11108;49.988;8.182;2023-02-23T07:54:12;4.43;;;4.03;;
21886;SDS011;11108;49.988;8.182;2023-02-23T07:56:38;4.37;;;4.07;;
21886;SDS011;11108;49.988;8.182;2023-02-23T07:59:03;4.43;;;4.13;;
21886;SDS011;11108;49.988;8.182;2023-02-23T08:01:28;4.17;;;3.87;;
21886;SDS011;11108;49.988;8.182;2023-02-23T08:03:53;5.73;;;4.20;;
21886;SDS011;11108;49.988;8.182;2023-02-23T08:06:19;4.27;;;3.97;;
21886;SDS011;11108;49.988;8.182;2023-02-23T08:08:44;4.43;;;4.03;;
21886;SDS011;11108;49.988;8.182;2023-02-23T08:11:09;4.67;;;4.27;;
21886;SDS011;11108;49.988;8.182;2023-02-23T08:13:36;7.07;;;4.20;;
21886;SDS011;11108;49.988;8.182;2023-02-23T08:16:01;4.60;;;4.20;;
21886;SDS011;11108;49.988;8.182;2023-02-23T08:18:26;5.03;;;4.10;;
21886;SDS011;11108;49.988;8.182;2023-02-23T08:20:58;4.20;;;3.80;;
21886;SDS011;11108;49.988;8.182;2023-02-23T08:23:23;4.67;;;4.20;;
21886;SDS011;11108;49.988;8.182;2023-02-23T08:25:49;3.87;;;3.57;;
21886;SDS011;11108;49.988;8.182;2023-02-23T08:28:14;4.47;;;4.17;;
21886;SDS011;11108;49.988;8.182;2023-02-23T08:30:39;4.93;;;4.17;;
21886;SDS011;11108;49.988;8.182;2023-02-23T08:33:05;6.03;;;4.17;;
21886;SDS011;11108;49.988;8.182;2023-02-23T08:35:30;4.77;;;4.37;;
21886;SDS011;11108;49.988;8.182;2023-02-23T08:37:56;5.13;;;4.30;;
21886;SDS011;11108;49.988;8.182;2023-02-23T08:40:21;4.37;;;4.07;;
21886;SDS011;11108;49.988;8.182;2023-02-23T08:42:46;4.57;;;4.00;;
21886;SDS011;11108;49.988;8.182;2023-02-23T08:45:18;4.07;;;3.70;;
21886;SDS011;11108;49.988;8.182;2023-02-23T08:47:43;4.20;;;3.90;;
21886;SDS011;11108;49.988;8.182;2023-02-23T08:50:09;3.80;;;3.50;;
21886;SDS011;11108;49.988;8.182;2023-02-23T08:52:35;4.47;;;4.07;;
21886;SDS011;11108;49.988;8.182;2023-02-23T08:55:00;4.40;;;4.00;;
21886;SDS011;11108;49.988;8.182;2023-02-23T08:57:25;4.30;;;3.90;;
21886;SDS011;11108;49.988;8.182;2023-02-23T08:59:51;4.33;;;3.93;;
21886;SDS011;11108;49.988;8.182;2023-02-23T09:02:16;4.73;;;3.80;;
21886;SDS011;11108;49.988;8.182;2023-02-23T09:04:41;4.10;;;3.70;;
21886;SDS011;11108;49.988;8.182;2023-02-23T09:07:08;4.20;;;3.80;;
21886;SDS011;11108;49.988;8.182;2023-02-23T09:09:33;4.30;;;3.90;;
21886;SDS011;11108;49.988;8.182;2023-02-23T09:11:59;4.43;;;4.03;;
21886;SDS011;11108;49.988;8.182;2023-02-23T09:14:24;5.37;;;4.43;;
21886;SDS011;11108;49.988;8.182;2023-02-23T09:16:50;8.00;;;4.03;;
21886;SDS011;11108;49.988;8.182;2023-02-23T09:19:15;6.23;;;3.67;;
21886;SDS011;11108;49.988;8.182;2023-02-23T09:21:42;4.70;;;3.77;;
21886;SDS011;11108;49.988;8.182;2023-02-23T09:24:07;4.03;;;3.73;;
21886;SDS011;11108;49.988;8.182;2023-02-23T09:26:32;3.63;;;3.37;;
21886;SDS011;11108;49.988;8.182;2023-02-23T09:29:00;4.33;;;3.93;;
21886;SDS011;11108;49.988;8.182;2023-02-23T09:31:25;4.53;;;4.00;;
21886;SDS011;11108;49.988;8.182;2023-02-23T09:33:51;4.17;;;3.73;;
21886;SDS011;11108;49.988;8.182;2023-02-23T09:36:21;4.30;;;3.90;;
21886;SDS011;11108;49.988;8.182;2023-02-23T09:38:48;5.63;;;4.43;;
21886;SDS011;11108;49.988;8.182;2023-02-23T09:44:01;19.80;;;6.37;;
21886;SDS011;11108;49.988;8.182;2023-02-23T09:47:03;15.00;;;6.87;;
21886;SDS011;11108;49.988;8.182;2023-02-23T09:49:19;14.40;;;5.83;;
21886;SDS011;11108;49.988;8.182;2023-02-23T09:51:50;11.10;;;5.90;;
21886;SDS011;11108;49.988;8.182;2023-02-23T09:54:21;13.40;;;7.00;;
21886;SDS011;11108;49.988;8.182;2023-02-23T09:56:47;13.90;;;6.37;;
21886;SDS011;11108;49.988;8.182;2023-02-23T09:59:13;11.90;;;6.43;;
21886;SDS011;11108;49.988;8.182;2023-02-23T10:06:38;9.30;;;5.60;;
21886;SDS011;11108;49.988;8.182;2023-02-23T10:09:09;12.57;;;5.57;;
21886;SDS011;11108;49.988;8.182;2023-02-23T10:19:13;16.87;;;10.10;;
21886;SDS011;11108;49.988;8.182;2023-02-23T10:21:45;20.00;;;9.53;;
21886;SDS011;11108;49.988;8.182;2023-02-23T10:24:19;14.40;;;8.53;;
21886;SDS011;11108;49.988;8.182;2023-02-23T10:26:48;15.10;;;8.23;;
21886;SDS011;11108;49.988;8.182;2023-02-23T10:31:44;12.90;;;7.63;;
21886;SDS011;11108;49.988;8.182;2023-02-23T10:34:15;10.87;;;7.27;;
21886;SDS011;11108;49.988;8.182;2023-02-23T10:36:43;17.67;;;9.40;;
21886;SDS011;11108;49.988;8.182;2023-02-23T10:39:10;16.40;;;10.33;;
21886;SDS011;11108;49.988;8.182;2023-02-23T10:41:36;18.70;;;10.93;;
21886;SDS011;11108;49.988;8.182;2023-02-23T10:44:03;20.73;;;10.70;;
21886;SDS011;11108;49.988;8.182;2023-02-23T10:46:35;15.83;;;9.23;;
21886;SDS011;11108;49.988;8.182;2023-02-23T10:49:02;13.87;;;8.47;;
21886;SDS011;11108;49.988;8.182;2023-02-23T10:51:28;16.47;;;8.50;;
21886;SDS011;11108;49.988;8.182;2023-02-23T10:53:54;13.87;;;8.50;;
21886;SDS011;11108;49.988;8.182;2023-02-23T10:56:19;12.90;;;7.63;;
21886;SDS011;11108;49.988;8.182;2023-02-23T10:58:52;12.27;;;7.50;;
21886;SDS011;11108;49.988;8.182;2023-02-23T11:01:37;9.80;;;6.97;;
21886;SDS011;11108;49.988;8.182;2023-02-23T11:04:17;9.07;;;6.57;;
21886;SDS011;11108;49.988;8.182;2023-02-23T11:06:43;10.93;;;6.73;;
21886;SDS011;11108;49.988;8.182;2023-02-23T11:09:15;10.13;;;6.83;;
21886;SDS011;11108;49.988;8.182;2023-02-23T11:11:40;10.57;;;6.67;;
21886;SDS011;11108;49.988;8.182;2023-02-23T11:14:22;10.43;;;6.00;;
21886;SDS011;11108;49.988;8.182;2023-02-23T11:16:48;10.83;;;7.07;;
21886;SDS011;11108;49.988;8.182;2023-02-23T11:19:20;11.17;;;6.07;;
21886;SDS011;11108;49.988;8.182;2023-02-23T11:21:49;8.03;;;6.00;;
21886;SDS011;11108;49.988;8.182;2023-02-23T11:24:20;9.17;;;5.60;;
21886;SDS011;11108;49.988;8.182;2023-02-23T11:26:47;8.37;;;5.90;;
21886;SDS011;11108;49.988;8.182;2023-02-23T11:29:25;9.83;;;6.37;;
21886;SDS011;11108;49.988;8.182;2023-02-23T11:31:54;8.80;;;5.43;;
21886;SDS011;11108;49.988;8.182;2023-02-23T11:34:22;7.13;;;5.47;;
21886;SDS011;11108;49.988;8.182;2023-02-23T11:36:57;6.40;;;5.00;;
21886;SDS011;11108;49.988;8.182;2023-02-23T11:39:23;9.37;;;5.10;;
21886;SDS011;11108;49.988;8.182;2023-02-23T11:42:02;6.80;;;5.33;;
21886;SDS011;11108;49.988;8.182;2023-02-23T11:44:28;9.03;;;5.50;;
21886;SDS011;11108;49.988;8.182;2023-02-23T11:46:53;9.33;;;5.30;;
21886;SDS011;11108;49.988;8.182;2023-02-23T11:49:26;23.00;;;8.97;;
21886;SDS011;11108;49.988;8.182;2023-02-23T11:51:52;15.43;;;8.93;;
21886;SDS011;11108;49.988;8.182;2023-02-23T11:54:31;19.27;;;8.80;;
21886;SDS011;11108;49.988;8.182;2023-02-23T11:56:57;21.90;;;11.03;;
21886;SDS011;11108;49.988;8.182;2023-02-23T11:59:27;32.47;;;14.47;;
21886;SDS011;11108;49.988;8.182;2023-02-23T12:01:55;24.47;;;13.90;;
21886;SDS011;11108;49.988;8.182;2023-02-23T12:04:29;24.57;;;12.70;;
21886;SDS011;11108;49.988;8.182;2023-02-23T12:09:41;28.00;;;14.07;;
21886;SDS011;11108;49.988;8.182;2023-02-23T12:12:10;24.53;;;14.57;;
21886;SDS011;11108;49.988;8.182;2023-02-23T12:14:42;22.10;;;12.63;;
21886;SDS011;11108;49.988;8.182;2023-02-23T12:17:24;20.43;;;13.73;;
21886;SDS011;11108;49.988;8.182;2023-02-23T12:19:52;24.00;;;13.40;;
21886;SDS011;11108;49.988;8.182;2023-02-23T12:22:21;22.20;;;12.23;;
21886;SDS011;11108;49.988;8.182;2023-02-23T12:24:49;25.33;;;12.90;;
21886;SDS011;11108;49.988;8.182;2023-02-23T12:27:30;26.20;;;12.53;;
21886;SDS011;11108;49.988;8.182;2023-02-23T12:30:09;17.80;;;11.10;;
21886;SDS011;11108;49.988;8.182;2023-02-23T12:32:50;19.93;;;12.17;;
21886;SDS011;11108;49.988;8.182;2023-02-23T12:35:23;22.20;;;13.07;;
21886;SDS011;11108;49.988;8.182;2023-02-23T12:37:55;26.30;;;13.00;;
21886;SDS011;11108;49.988;8.182;2023-02-23T12:40:25;22.90;;;11.37;;
21886;SDS011;11108;49.988;8.182;2023-02-23T12:45:24;22.40;;;12.33;;
21886;SDS011;11108;49.988;8.182;2023-02-23T12:48:05;22.87;;;11.83;;
21886;SDS011;11108;49.988;8.182;2023-02-23T12:50:33;19.10;;;10.40;;
21886;SDS011;11108;49.988;8.182;2023-02-23T12:53:06;16.97;;;10.03;;
21886;SDS011;11108;49.988;8.182;2023-02-23T12:55:40;23.00;;;12.30;;
21886;SDS011;11108;49.988;8.182;2023-02-23T12:58:28;17.13;;;10.17;;
21886;SDS011;11108;49.988;8.182;2023-02-23T13:00:58;17.10;;;10.93;;
21886;SDS011;11108;49.988;8.182;2023-02-23T13:03:32;20.90;;;11.33;;
21886;SDS011;11108;49.988;8.182;2023-02-23T13:06:10;17.40;;;10.23;;
21886;SDS011;11108;49.988;8.182;2023-02-23T13:13:54;16.17;;;9.87;;
21886;SDS011;11108;49.988;8.182;2023-02-23T13:16:23;16.63;;;9.90;;
21886;SDS011;11108;49.988;8.182;2023-02-23T13:21:34;17.47;;;9.90;;
21886;SDS011;11108;49.988;8.182;2023-02-23T13:24:04;14.50;;;9.60;;
21886;SDS011;11108;49.988;8.182;2023-02-23T13:29:23;14.37;;;8.90;;
21886;SDS011;11108;49.988;8.182;2023-02-23T13:31:50;18.13;;;9.37;;
21886;SDS011;11108;49.988;8.182;2023-02-23T13:34:19;15.37;;;9.37;;
21886;SDS011;11108;49.988;8.182;2023-02-23T13:36:45;14.87;;;8.57;;
21886;SDS011;11108;49.988;8.182;2023-02-23T13:47:12;12.20;;;8.10;;
21886;SDS011;11108;49.988;8.182;2023-02-23T13:52:32;16.57;;;9.43;;
21886;SDS011;11108;49.988;8.182;2023-02-23T13:54:57;12.97;;;7.77;;
21886;SDS011;11108;49.988;8.182;2023-02-23T13:57:27;14.40;;;7.73;;
21886;SDS011;11108;49.988;8.182;2023-02-23T13:59:53;16.70;;;8.23;;
21886;SDS011;11108;49.988;8.182;2023-02-23T14:04:44;12.13;;;7.20;;
21886;SDS011;11108;49.988;8.182;2023-02-23T14:09:35;13.87;;;7.53;;
21886;SDS011;11108;49.988;8.182;2023-02-23T14:12:02;9.70;;;6.53;;
21886;SDS011;11108;49.988;8.182;2023-02-23T14:22:11;11.17;;;6.53;;
21886;SDS011;11108;49.988;8.182;2023-02-23T14:24:37;13.67;;;7.67;;
21886;SDS011;11108;49.988;8.182;2023-02-23T14:29:44;10.23;;;6.30;;
21886;SDS011;11108;49.988;8.182;2023-02-23T14:32:29;11.27;;;6.03;;
21886;SDS011;11108;49.988;8.182;2023-02-23T14:34:58;11.47;;;6.37;;
21886;SDS011;11108;49.988;8.182;2023-02-23T14:37:25;10.57;;;6.23;;
21886;SDS011;11108;49.988;8.182;2023-02-23T14:39:51;10.03;;;6.23;;
21886;SDS011;11108;49.988;8.182;2023-02-23T14:42:21;9.53;;;6.83;;
21886;SDS011;11108;49.988;8.182;2023-02-23T14:44:47;9.67;;;5.67;;
21886;SDS011;11108;49.988;8.182;2023-02-23T14:47:16;8.73;;;6.00;;
21886;SDS011;11108;49.988;8.182;2023-02-23T14:49:43;11.83;;;5.87;;
21886;SDS011;11108;49.988;8.182;2023-02-23T14:52:12;9.17;;;6.13;;
21886;SDS011;11108;49.988;8.182;2023-02-23T14:54:39;10.00;;;5.87;;
21886;SDS011;11108;49.988;8.182;2023-02-23T14:57:05;13.20;;;6.23;;
21886;SDS011;11108;49.988;8.182;2023-02-23T14:59:35;10.20;;;6.03;;
21886;SDS011;11108;49.988;8.182;2023-02-23T15:02:05;9.47;;;5.97;;
21886;SDS011;11108;49.988;8.182;2023-02-23T15:04:45;10.87;;;6.00;;
21886;SDS011;11108;49.988;8.182;2023-02-23T15:08:00;8.43;;;5.17;;
21886;SDS011;11108;49.988;8.182;2023-02-23T15:09:59;8.80;;;5.77;;
21886;SDS011;11108;49.988;8.182;2023-02-23T15:12:34;8.57;;;5.53;;
21886;SDS011;11108;49.988;8.182;2023-02-23T15:15:02;10.50;;;5.40;;
21886;SDS011;11108;49.988;8.182;2023-02-23T15:17:30;9.33;;;5.90;;
21886;SDS011;11108;49.988;8.182;2023-02-23T15:19:57;8.20;;;5.77;;
21886;SDS011;11108;49.988;8.182;2023-02-23T15:22:30;9.17;;;5.17;;
21886;SDS011;11108;49.988;8.182;2023-02-23T15:24:58;8.50;;;5.80;;
21886;SDS011;11108;49.988;8.182;2023-02-23T15:27:27;7.93;;;5.10;;
21886;SDS011;11108;49.988;8.182;2023-02-23T15:29:52;7.70;;;4.87;;
21886;SDS011;11108;49.988;8.182;2023-02-23T15:32:23;5.27;;;4.37;;
21886;SDS011;11108;49.988;8.182;2023-02-23T15:34:52;9.17;;;4.77;;
21886;SDS011;11108;49.988;8.182;2023-02-23T15:37:29;7.20;;;5.33;;
21886;SDS011;11108;49.988;8.182;2023-02-23T15:39:58;8.57;;;4.90;;
21886;SDS011;11108;49.988;8.182;2023-02-23T15:42:37;7.07;;;4.90;;
21886;SDS011;11108;49.988;8.182;2023-02-23T15:45:04;6.20;;;4.50;;
21886;SDS011;11108;49.988;8.182;2023-02-23T15:47:35;7.73;;;4.20;;
21886;SDS011;11108;49.988;8.182;2023-02-23T15:50:06;5.70;;;4.40;;
21886;SDS011;11108;49.988;8.182;2023-02-23T15:52:32;7.17;;;4.80;;
21886;SDS011;11108;49.988;8.182;2023-02-23T15:55:05;6.93;;;4.87;;
21886;SDS011;11108;49.988;8.182;2023-02-23T15:57:32;7.00;;;4.90;;
21886;SDS011;11108;49.988;8.182;2023-02-23T15:59:59;4.47;;;3.97;;
21886;SDS011;11108;49.988;8.182;2023-02-23T16:02:25;6.33;;;4.77;;
21886;SDS011;11108;49.988;8.182;2023-02-23T16:04:50;7.07;;;4.10;;
21886;SDS011;11108;49.988;8.182;2023-02-23T16:12:34;7.47;;;4.27;;
21886;SDS011;11108;49.988;8.182;2023-02-23T16:15:04;6.67;;;4.00;;
21886;SDS011;11108;49.988;8.182;2023-02-23T16:17:34;6.17;;;3.90;;
21886;SDS011;11108;49.988;8.182;2023-02-23T16:20:15;6.90;;;3.97;;
21886;SDS011;11108;49.988;8.182;2023-02-23T16:22:40;5.07;;;3.80;;
21886;SDS011;11108;49.988;8.182;2023-02-23T16:25:11;4.90;;;4.13;;
21886;SDS011;11108;49.988;8.182;2023-02-23T16:27:37;5.23;;;3.53;;
21886;SDS011;11108;49.988;8.182;2023-02-23T16:30:19;5.33;;;4.00;;
21886;SDS011;11108;49.988;8.182;2023-02-23T16:32:47;4.70;;;3.77;;
21886;SDS011;11108;49.988;8.182;2023-02-23T16:35:14;5.37;;;3.93;;
21886;SDS011;11108;49.988;8.182;2023-02-23T16:37:51;6.50;;;3.77;;
21886;SDS011;11108;49.988;8.182;2023-02-23T16:40:19;4.53;;;3.40;;
21886;SDS011;11108;49.988;8.182;2023-02-23T16:42:44;4.43;;;3.07;;
21886;SDS011;11108;49.988;8.182;2023-02-23T16:45:13;5.30;;;3.63;;